Time;durP1;ratioP1;P1;durP2;ratioP2;P2;SDS_P1;SDS_P2;PMS_P1;PMS_P2;Temp;Humidity;BMP_temperature;BMP_pressure;BME280_temperature;BME280_humidity;BME280_pressure;Samples;Min_cycle;Max_cycle;Signal;HPM_P1;HPM_P2
2023/09/15 04:01:38;;;;;;;2.83;1.73;;;17.10;77.80;;;;;;5475981;23;20510;-72
2023/09/15 04:04:06;;;;;;;2.70;1.80;;;17.10;77.60;;;;;;4919983;29;20539;-72
2023/09/15 04:06:33;;;;;;;2.20;1.73;;;17.10;77.60;;;;;;4919924;29;20444;-72
2023/09/15 04:08:59;;;;;;;2.77;1.70;;;17.10;77.60;;;;;;4920280;29;20457;-73
2023/09/15 04:11:26;;;;;;;3.27;2.20;;;17.10;77.60;;;;;;4919753;29;20468;-71
2023/09/15 04:13:53;;;;;;;2.20;1.90;;;17.10;77.80;;;;;;4920414;29;20445;-72
2023/09/15 04:16:19;;;;;;;2.20;1.70;;;17.00;77.80;;;;;;4919749;29;20452;-72
2023/09/15 04:18:47;;;;;;;2.10;1.70;;;17.00;77.90;;;;;;4919693;29;20440;-72
2023/09/15 04:21:14;;;;;;;2.40;1.47;;;17.00;78.00;;;;;;4919527;29;20493;-72
2023/09/15 04:23:40;;;;;;;2.50;1.70;;;16.90;78.30;;;;;;4919615;29;20448;-73
2023/09/15 04:26:07;;;;;;;2.83;2.30;;;16.90;78.30;;;;;;4919588;29;20445;-73
2023/09/15 04:28:34;;;;;;;2.73;2.20;;;16.90;78.50;;;;;;4919228;29;20464;-72
2023/09/15 04:31:01;;;;;;;2.53;2.00;;;16.90;78.40;;;;;;4918866;29;20560;-73
2023/09/15 04:33:28;;;;;;;3.23;1.93;;;16.90;78.20;;;;;;4919458;29;20495;-73
2023/09/15 04:35:56;;;;;;;2.83;2.00;;;17.00;78.20;;;;;;4919431;29;20450;-73
2023/09/15 04:38:23;;;;;;;2.97;2.33;;;17.00;78.10;;;;;;4919336;29;20461;-73
2023/09/15 04:40:51;;;;;;;3.87;2.97;;;17.00;77.90;;;;;;4918845;29;20495;-73
2023/09/15 04:43:17;;;;;;;2.70;2.23;;;17.00;78.00;;;;;;4918962;29;20460;-73
2023/09/15 04:45:44;;;;;;;2.60;2.23;;;16.90;78.20;;;;;;4918887;29;20931;-73
2023/09/15 04:48:11;;;;;;;3.27;2.67;;;16.90;78.40;;;;;;4918984;29;20488;-73
2023/09/15 04:50:37;;;;;;;2.97;2.50;;;16.90;78.40;;;;;;4919127;29;20892;-73
2023/09/15 04:53:07;;;;;;;3.73;2.17;;;16.90;78.40;;;;;;4919094;29;20471;-73
2023/09/15 04:55:33;;;;;;;3.10;2.03;;;16.80;78.70;;;;;;4918728;29;20823;-73
2023/09/15 04:58:00;;;;;;;3.30;1.93;;;16.90;78.60;;;;;;4919001;29;20488;-73
2023/09/15 05:00:29;;;;;;;2.43;1.67;;;16.80;78.60;;;;;;4918409;29;20946;-73
2023/09/15 05:02:56;;;;;;;3.80;2.30;;;16.90;78.50;;;;;;4918942;29;20547;-73
2023/09/15 05:05:23;;;;;;;3.00;2.00;;;16.90;78.50;;;;;;4918895;29;20481;-73
2023/09/15 05:07:50;;;;;;;3.00;2.23;;;16.90;78.40;;;;;;4918816;29;20456;-73
2023/09/15 05:10:18;;;;;;;3.00;2.30;;;16.90;78.60;;;;;;4918813;29;20456;-73
2023/09/15 05:12:45;;;;;;;2.77;1.97;;;16.90;78.60;;;;;;4918747;29;20547;-73
2023/09/15 05:15:12;;;;;;;2.90;2.17;;;16.90;78.60;;;;;;4918692;29;20500;-73
2023/09/15 05:17:39;;;;;;;2.60;2.13;;;16.90;78.50;;;;;;4918675;29;20444;-73
2023/09/15 05:20:07;;;;;;;3.50;2.47;;;16.90;78.60;;;;;;4918339;29;20947;-73
2023/09/15 05:22:33;;;;;;;2.87;2.20;;;17.00;78.50;;;;;;4918111;29;21002;-73
2023/09/15 05:25:04;;;;;;;2.80;2.40;;;17.00;78.50;;;;;;4918583;29;20453;-73
2023/09/15 05:27:32;;;;;;;3.20;2.47;;;17.10;78.40;;;;;;4918529;29;20488;-73
2023/09/15 05:29:59;;;;;;;3.27;2.30;;;17.10;78.50;;;;;;4918527;29;20484;-73
2023/09/15 05:32:26;;;;;;;2.73;2.10;;;17.20;78.40;;;;;;4918270;29;20903;-73
2023/09/15 05:34:52;;;;;;;2.73;2.10;;;17.40;78.40;;;;;;4918289;29;20513;-73
2023/09/15 05:37:19;;;;;;;3.40;2.10;;;17.60;78.10;;;;;;4918272;29;20456;-73
2023/09/15 05:39:46;;;;;;;3.63;2.30;;;17.90;77.30;;;;;;4918261;29;20832;-73
2023/09/15 05:42:12;;;;;;;4.90;2.27;;;18.10;76.10;;;;;;4917398;29;20863;-73
2023/09/15 05:44:40;;;;;;;2.63;2.03;;;18.40;75.90;;;;;;4918177;29;20444;-73
2023/09/15 05:47:07;;;;;;;3.80;2.10;;;18.70;75.30;;;;;;4918543;29;20448;-73
2023/09/15 05:49:34;;;;;;;2.37;1.90;;;19.10;74.40;;;;;;4917757;29;20851;-73
2023/09/15 05:52:02;;;;;;;2.70;2.30;;;19.60;73.50;;;;;;4918713;29;20465;-73
2023/09/15 05:54:29;;;;;;;3.80;2.60;;;20.10;72.00;;;;;;4917987;29;20495;-73
2023/09/15 05:56:56;;;;;;;3.77;2.43;;;20.60;70.90;;;;;;4917772;29;20457;-73
2023/09/15 05:59:23;;;;;;;2.33;2.10;;;21.10;69.70;;;;;;4917694;29;20524;-73
2023/09/15 06:01:51;;;;;;;2.60;2.30;;;21.70;68.60;;;;;;4917269;29;20607;-74
2023/09/15 06:04:17;;;;;;;2.30;1.90;;;22.30;67.20;;;;;;4917521;29;20961;-74
2023/09/15 06:06:44;;;;;;;2.73;2.00;;;22.90;66.20;;;;;;4917750;29;20452;-74
2023/09/15 06:09:11;;;;;;;3.33;2.37;;;23.40;64.60;;;;;;4917665;29;20448;-74
2023/09/15 06:11:37;;;;;;;2.70;2.30;;;24.00;63.00;;;;;;4917633;29;20472;-74
2023/09/15 06:14:04;;;;;;;3.53;3.10;;;24.40;62.10;;;;;;4917640;29;20449;-74
2023/09/15 06:16:33;;;;;;;3.33;2.87;;;24.90;61.30;;;;;;4917596;29;20453;-74
2023/09/15 06:19:02;;;;;;;2.73;2.30;;;25.40;60.30;;;;;;4917542;29;20536;-74
2023/09/15 06:21:28;;;;;;;2.40;2.20;;;26.00;58.40;;;;;;4917073;29;21016;-75
2023/09/15 06:23:55;;;;;;;2.73;2.07;;;26.30;57.90;;;;;;4917478;29;20509;-75
2023/09/15 06:26:22;;;;;;;2.97;2.53;;;27.00;56.80;;;;;;4917380;29;20496;-75
2023/09/15 06:28:49;;;;;;;3.50;2.27;;;27.20;56.10;;;;;;4917308;29;20484;-74
2023/09/15 06:31:18;;;;;;;3.80;2.73;;;27.70;55.10;;;;;;4917181;29;20465;-74
2023/09/15 06:33:45;;;;;;;2.27;2.00;;;28.10;54.10;;;;;;4917014;29;20961;-74
2023/09/15 06:36:13;;;;;;;2.40;2.10;;;28.50;53.30;;;;;;4918047;29;20472;-74
2023/09/15 06:38:40;;;;;;;2.60;2.23;;;29.10;52.50;;;;;;4917237;29;20453;-74
2023/09/15 06:41:06;;;;;;;3.10;2.40;;;29.70;51.30;;;;;;4917018;29;20488;-75
2023/09/15 06:43:33;;;;;;;2.50;2.30;;;29.90;51.10;;;;;;4917163;29;20448;-76
2023/09/15 06:46:00;;;;;;;2.80;2.60;;;30.50;51.10;;;;;;4917241;29;20449;-73
2023/09/15 06:48:26;;;;;;;3.00;2.70;;;31.20;49.30;;;;;;4917482;29;20535;-74
2023/09/15 06:50:53;;;;;;;3.73;2.37;;;31.90;48.60;;;;;;4917254;29;20507;-74
2023/09/15 06:53:21;;;;;;;3.30;2.50;;;32.50;46.70;;;;;;4916769;29;20456;-72
2023/09/15 06:55:48;;;;;;;2.40;2.20;;;32.40;46.50;;;;;;4916741;29;20977;-74
2023/09/15 06:58:14;;;;;;;3.10;2.80;;;32.70;46.10;;;;;;4917594;29;20456;-75
2023/09/15 07:00:41;;;;;;;3.40;2.73;;;32.40;46.50;;;;;;4919436;29;20480;-75
2023/09/15 07:03:08;;;;;;;3.40;2.90;;;33.30;45.50;;;;;;4918568;29;20491;-76
2023/09/15 07:05:34;;;;;;;2.87;2.63;;;34.20;44.90;;;;;;4917928;29;20835;-76
2023/09/15 07:08:02;;;;;;;3.33;2.43;;;34.30;43.60;;;;;;4917209;29;20452;-75
2023/09/15 07:10:30;;;;;;;3.07;2.77;;;33.50;44.20;;;;;;4917057;29;20459;-75
2023/09/15 07:12:56;;;;;;;3.10;2.63;;;32.00;46.50;;;;;;4917207;29;20962;-75
2023/09/15 07:15:23;;;;;;;4.00;2.90;;;30.80;48.40;;;;;;4917309;29;20456;-75
2023/09/15 07:17:50;;;;;;;3.43;3.13;;;30.10;50.00;;;;;;4917387;29;20453;-75
2023/09/15 07:20:17;;;;;;;2.83;2.63;;;29.30;52.00;;;;;;4917367;29;20456;-75
2023/09/15 07:22:43;;;;;;;4.80;3.40;;;28.40;53.50;;;;;;4917401;29;20868;-74
2023/09/15 07:25:10;;;;;;;3.20;2.90;;;27.40;55.40;;;;;;4917722;29;20449;-75
2023/09/15 07:27:38;;;;;;;3.67;3.37;;;27.10;56.70;;;;;;4917058;29;20879;-75
2023/09/15 07:30:06;;;;;;;3.80;3.50;;;26.80;57.40;;;;;;4917681;29;20452;-74
2023/09/15 07:32:34;;;;;;;3.33;3.03;;;26.70;57.90;;;;;;4917196;29;20461;-74
2023/09/15 07:35:00;;;;;;;3.47;3.17;;;25.40;59.90;;;;;;4916483;29;20452;-74
2023/09/15 07:37:27;;;;;;;3.20;2.90;;;25.60;60.90;;;;;;4916678;29;20849;-73
2023/09/15 07:39:54;;;;;;;3.87;3.57;;;25.70;60.70;;;;;;4916689;29;20917;-75
2023/09/15 07:42:20;;;;;;;3.80;3.50;;;25.80;59.70;;;;;;4917204;29;20511;-75
2023/09/15 07:44:48;;;;;;;4.70;3.60;;;24.90;61.90;;;;;;4916552;29;20453;-74
2023/09/15 07:47:15;;;;;;;3.57;3.23;;;24.20;63.60;;;;;;4916610;29;20448;-74
2023/09/15 07:49:42;;;;;;;5.00;3.97;;;24.00;64.60;;;;;;4917610;29;20456;-75
2023/09/15 07:52:09;;;;;;;3.93;3.37;;;23.70;65.40;;;;;;4917005;29;21051;-74
2023/09/15 07:54:35;;;;;;;4.03;3.63;;;23.70;66.20;;;;;;4916951;29;20453;-74
2023/09/15 07:57:03;;;;;;;4.17;3.73;;;24.20;65.90;;;;;;4917108;29;20483;-75
2023/09/15 07:59:30;;;;;;;3.53;3.23;;;24.00;65.00;;;;;;4916963;29;20452;-74
2023/09/15 08:01:59;;;;;;;3.77;3.47;;;23.50;66.40;;;;;;4916032;29;20580;-74
2023/09/15 08:04:26;;;;;;;3.70;3.20;;;23.30;67.70;;;;;;4917261;29;20453;-74
2023/09/15 08:06:54;;;;;;;3.87;3.57;;;23.60;67.20;;;;;;4919865;29;20451;-74
2023/09/15 08:09:21;;;;;;;3.47;3.17;;;23.50;67.80;;;;;;4919910;29;20448;-73
2023/09/15 08:11:48;;;;;;;3.33;2.80;;;23.00;67.80;;;;;;4919941;29;20794;-72
2023/09/15 08:14:14;;;;;;;3.10;2.80;;;22.70;69.60;;;;;;4920632;29;20456;-73
2023/09/15 08:16:42;;;;;;;3.60;3.30;;;22.60;70.30;;;;;;4920280;29;20451;-74
2023/09/15 08:19:10;;;;;;;3.80;3.00;;;22.70;70.00;;;;;;4919893;29;20968;-74
2023/09/15 08:21:37;;;;;;;3.40;2.73;;;23.00;69.70;;;;;;4919791;29;20517;-74
2023/09/15 08:24:04;;;;;;;3.37;3.07;;;23.20;69.10;;;;;;4920055;29;20480;-75
2023/09/15 08:26:31;;;;;;;5.00;3.37;;;23.00;69.30;;;;;;4919902;29;20475;-74
2023/09/15 08:28:57;;;;;;;3.40;3.10;;;22.60;69.30;;;;;;4919954;29;20449;-75
2023/09/15 08:31:25;;;;;;;3.53;3.23;;;22.70;70.20;;;;;;4919844;29;20465;-75
2023/09/15 08:33:53;;;;;;;3.87;3.30;;;22.90;70.00;;;;;;4919495;29;20453;-75
2023/09/15 08:36:21;;;;;;;3.63;3.33;;;22.80;69.60;;;;;;4919899;29;20485;-74
2023/09/15 08:38:47;;;;;;;3.57;3.27;;;23.10;69.80;;;;;;4920080;29;20452;-74
2023/09/15 08:41:21;;;;;;;2.90;2.60;;;23.10;69.20;;;;;;4920118;29;20467;-74
2023/09/15 08:43:48;;;;;;;3.57;3.27;;;23.40;69.60;;;;;;4920023;29;20424;-74
2023/09/15 08:46:16;;;;;;;3.40;3.10;;;23.30;67.70;;;;;;4919380;29;20795;-74
2023/09/15 08:48:49;;;;;;;3.03;2.70;;;23.20;69.70;;;;;;4919703;29;20444;-75
2023/09/15 08:51:16;;;;;;;3.50;2.90;;;23.40;69.90;;;;;;4919502;29;20496;-74
2023/09/15 08:53:45;;;;;;;3.47;3.17;;;23.50;68.50;;;;;;4919148;29;20791;-75
2023/09/15 08:56:12;;;;;;;3.77;3.47;;;23.20;69.20;;;;;;4918904;29;20445;-74
2023/09/15 08:58:39;;;;;;;3.63;3.33;;;23.10;68.80;;;;;;4919003;29;20513;-75
2023/09/15 09:01:08;;;;;;;3.73;3.43;;;23.00;69.90;;;;;;4920311;29;20907;-75
2023/09/15 09:03:36;;;;;;;3.17;2.87;;;23.10;70.20;;;;;;4920350;29;20543;-74
2023/09/15 09:06:04;;;;;;;3.20;2.90;;;23.00;70.50;;;;;;4919676;29;20467;-74
2023/09/15 09:08:32;;;;;;;3.50;3.20;;;22.90;69.80;;;;;;4919344;29;20491;-75
2023/09/15 09:11:00;;;;;;;3.60;3.10;;;22.80;70.50;;;;;;4919070;29;20473;-74
2023/09/15 09:13:27;;;;;;;3.90;3.50;;;22.60;70.70;;;;;;4919158;29;20456;-74
2023/09/15 09:15:54;;;;;;;4.30;2.90;;;22.70;70.60;;;;;;4918705;29;20923;-75
2023/09/15 09:18:20;;;;;;;3.40;2.77;;;22.70;71.60;;;;;;4919092;29;20456;-75
2023/09/15 09:20:50;;;;;;;3.27;2.63;;;22.70;70.70;;;;;;4919421;29;20469;-76
2023/09/15 09:23:18;;;;;;;3.90;3.60;;;22.50;71.70;;;;;;4919153;29;20492;-75
2023/09/15 09:25:45;;;;;;;4.13;3.00;;;22.60;71.00;;;;;;4919082;29;20487;-76
2023/09/15 09:28:13;;;;;;;3.20;2.90;;;22.70;71.20;;;;;;4918858;29;20460;-76
2023/09/15 09:30:40;;;;;;;3.30;2.90;;;22.90;71.80;;;;;;4918798;29;20495;-75
2023/09/15 09:33:08;;;;;;;3.37;3.07;;;23.00;70.30;;;;;;4918385;29;20954;-75
2023/09/15 09:35:35;;;;;;;4.17;3.00;;;23.10;70.20;;;;;;4918617;29;21043;-75
2023/09/15 09:38:03;;;;;;;3.23;2.40;;;23.30;69.90;;;;;;4918695;29;20449;-75
2023/09/15 09:40:32;;;;;;;3.20;2.90;;;23.60;69.70;;;;;;4918719;29;20453;-75
2023/09/15 09:42:59;;;;;;;3.70;3.40;;;23.70;68.60;;;;;;4918696;29;20866;-75
2023/09/15 09:45:27;;;;;;;4.20;3.80;;;23.60;68.80;;;;;;4918566;29;20864;-76
2023/09/15 09:47:54;;;;;;;3.20;2.83;;;23.40;69.40;;;;;;4918607;29;20445;-76
2023/09/15 09:50:22;;;;;;;3.23;2.93;;;23.50;69.80;;;;;;4918461;29;20487;-76
2023/09/15 09:52:49;;;;;;;3.43;3.13;;;23.70;69.30;;;;;;4918230;29;20958;-76
2023/09/15 09:55:15;;;;;;;3.00;2.70;;;23.50;69.50;;;;;;4918278;29;20476;-76
2023/09/15 09:57:42;;;;;;;3.70;2.93;;;23.50;69.20;;;;;;4918586;29;20445;-76
2023/09/15 10:00:10;;;;;;;3.30;2.67;;;23.70;69.20;;;;;;4918167;29;20456;-76
2023/09/15 10:02:40;;;;;;;2.97;2.67;;;23.70;68.70;;;;;;4918146;29;20994;-76
2023/09/15 10:05:07;;;;;;;3.13;2.73;;;23.90;68.40;;;;;;4918425;29;20452;-76
2023/09/15 10:07:35;;;;;;;3.10;2.80;;;23.90;67.90;;;;;;4918020;29;20946;-75
2023/09/15 10:10:03;;;;;;;2.80;2.60;;;23.90;68.70;;;;;;4918407;29;20456;-75
2023/09/15 10:12:30;;;;;;;3.20;2.90;;;23.90;69.00;;;;;;4918396;29;20524;-75
2023/09/15 10:14:58;;;;;;;3.03;2.70;;;24.00;68.10;;;;;;4919299;29;20453;-76
2023/09/15 10:17:27;;;;;;;2.70;2.33;;;24.00;68.10;;;;;;4919460;29;20449;-76
2023/09/15 10:19:57;;;;;;;3.90;2.80;;;24.00;68.90;;;;;;4918959;29;20448;-76
2023/09/15 10:22:25;;;;;;;3.73;3.33;;;24.10;66.30;;;;;;4919914;29;20527;-77
2023/09/15 10:24:57;;;;;;;3.60;3.30;;;23.90;67.40;;;;;;4919160;29;20453;-76
2023/09/15 10:27:24;;;;;;;3.57;2.77;;;24.10;67.70;;;;;;4918790;29;20440;-76
2023/09/15 10:29:52;;;;;;;2.80;2.40;;;24.10;67.50;;;;;;4919471;29;20484;-76
2023/09/15 10:32:19;;;;;;;3.10;2.83;;;24.30;66.70;;;;;;4919313;29;20472;-76
2023/09/15 10:34:46;;;;;;;2.77;2.53;;;24.40;66.70;;;;;;4919001;29;20456;-76
2023/09/15 10:37:15;;;;;;;3.03;2.73;;;24.10;66.80;;;;;;4917649;29;20452;-76
2023/09/15 10:39:42;;;;;;;2.73;2.50;;;24.10;67.60;;;;;;4917577;29;20452;-76
2023/09/15 10:42:10;;;;;;;3.33;2.50;;;24.10;67.00;;;;;;4917209;29;20508;-76
2023/09/15 10:44:37;;;;;;;3.33;3.03;;;24.10;67.10;;;;;;4917129;29;20445;-76
2023/09/15 10:47:15;;;;;;;3.67;2.90;;;24.10;67.40;;;;;;4917431;29;20476;-77
2023/09/15 10:49:49;;;;;;;3.30;2.50;;;24.20;66.80;;;;;;4917254;29;20467;-76
2023/09/15 10:52:18;;;;;;;2.80;2.20;;;24.30;66.50;;;;;;4917342;29;20499;-77
2023/09/15 10:54:45;;;;;;;3.00;2.30;;;24.50;66.20;;;;;;4917471;29;20950;-77
2023/09/15 10:57:12;;;;;;;2.60;2.10;;;24.50;66.00;;;;;;4918198;29;20461;-77
2023/09/15 10:59:39;;;;;;;3.20;2.90;;;24.60;66.20;;;;;;4918185;29;20453;-77
2023/09/15 11:02:06;;;;;;;3.13;2.50;;;24.70;65.50;;;;;;4916846;29;20512;-77
2023/09/15 11:04:33;;;;;;;2.67;2.47;;;24.50;65.20;;;;;;4917311;29;20441;-77
2023/09/15 11:07:02;;;;;;;2.80;2.60;;;24.70;67.50;;;;;;4916980;29;20451;-77
2023/09/15 11:09:30;;;;;;;3.07;2.60;;;24.70;65.30;;;;;;4917111;29;20487;-76
2023/09/15 11:11:57;;;;;;;3.13;2.83;;;24.70;64.40;;;;;;4916941;29;20564;-76
2023/09/15 11:14:25;;;;;;;2.97;2.67;;;24.80;65.80;;;;;;4917023;29;20449;-76
2023/09/15 11:16:56;;;;;;;4.90;2.80;;;25.10;65.40;;;;;;4916568;29;20943;-77
2023/09/15 11:19:25;;;;;;;3.37;2.80;;;25.20;65.20;;;;;;4916866;29;20433;-76
2023/09/15 11:21:52;;;;;;;3.57;3.10;;;25.30;64.80;;;;;;4916901;29;20488;-76
2023/09/15 11:24:19;;;;;;;3.40;3.10;;;24.80;64.20;;;;;;4916747;29;20908;-76
2023/09/15 11:26:50;;;;;;;3.13;2.83;;;24.80;65.70;;;;;;4916773;29;20453;-76
2023/09/15 11:29:17;;;;;;;3.27;2.97;;;25.00;65.00;;;;;;4917762;29;20449;-77
2023/09/15 11:31:46;;;;;;;3.17;2.63;;;24.90;65.00;;;;;;4916657;29;20469;-76
2023/09/15 11:34:15;;;;;;;3.40;2.60;;;25.00;65.40;;;;;;4916902;29;20544;-77
2023/09/15 11:36:43;;;;;;;3.10;2.80;;;25.10;65.00;;;;;;4916748;29;20970;-77
2023/09/15 11:39:11;;;;;;;3.10;2.80;;;25.40;63.50;;;;;;4916666;29;20829;-78
2023/09/15 11:41:39;;;;;;;2.30;2.10;;;25.70;63.20;;;;;;4920434;29;20476;-77
2023/09/15 11:44:08;;;;;;;3.20;2.67;;;25.80;62.80;;;;;;4920174;29;20484;-69
2023/09/15 11:46:37;;;;;;;2.60;2.10;;;25.60;62.30;;;;;;4919996;29;21025;-69
2023/09/15 11:49:05;;;;;;;2.70;2.33;;;25.90;63.30;;;;;;4920279;29;20447;-68
2023/09/15 11:51:32;;;;;;;3.60;2.83;;;25.80;61.00;;;;;;4920299;29;20480;-69
2023/09/15 11:53:59;;;;;;;3.53;2.60;;;25.60;61.30;;;;;;4920396;29;20452;-69
2023/09/15 11:56:26;;;;;;;3.17;2.77;;;26.00;62.10;;;;;;4919948;29;20448;-71
2023/09/15 11:58:54;;;;;;;2.80;2.50;;;26.10;61.80;;;;;;4920220;29;20469;-69
2023/09/15 12:01:23;;;;;;;2.53;2.33;;;26.30;61.70;;;;;;4919831;29;20488;-70
2023/09/15 12:03:50;;;;;;;3.80;2.00;;;26.10;60.90;;;;;;4919967;29;20534;-69
2023/09/15 12:06:17;;;;;;;2.17;1.97;;;26.20;60.50;;;;;;4919988;29;20477;-69
2023/09/15 12:08:45;;;;;;;2.33;1.93;;;26.30;59.20;;;;;;4919857;29;20483;-70
2023/09/15 12:11:12;;;;;;;2.67;2.00;;;26.50;59.30;;;;;;4919755;29;20468;-68
2023/09/15 12:13:39;;;;;;;2.17;1.80;;;26.60;58.50;;;;;;4919819;29;20814;-68
2023/09/15 12:16:05;;;;;;;2.17;1.60;;;26.60;58.80;;;;;;4920111;29;20508;-68
2023/09/15 12:18:37;;;;;;;2.50;1.90;;;26.70;57.70;;;;;;4919702;29;20445;-68
2023/09/15 12:21:11;;;;;;;2.33;1.80;;;26.60;58.50;;;;;;4919654;29;20473;-68
2023/09/15 12:23:37;;;;;;;2.20;1.70;;;26.60;59.00;;;;;;4919562;29;20479;-68
2023/09/15 12:26:04;;;;;;;2.93;2.30;;;26.70;59.00;;;;;;4919594;29;20531;-68
2023/09/15 12:28:31;;;;;;;2.20;1.80;;;27.20;58.30;;;;;;4919544;29;20477;-68
2023/09/15 12:30:58;;;;;;;2.30;1.97;;;27.40;56.90;;;;;;4919473;29;20498;-68
2023/09/15 12:33:26;;;;;;;2.37;2.00;;;27.30;57.10;;;;;;4919443;29;20455;-68
2023/09/15 12:35:54;;;;;;;2.70;2.10;;;27.50;56.90;;;;;;4919378;29;20456;-68
2023/09/15 12:38:20;;;;;;;2.00;1.80;;;27.70;57.20;;;;;;4919268;29;20453;-69
2023/09/15 12:40:49;;;;;;;2.40;1.90;;;28.00;55.70;;;;;;4919286;29;20460;-69
2023/09/15 12:43:17;;;;;;;2.37;1.90;;;28.20;55.60;;;;;;4919077;29;20998;-69
2023/09/15 12:45:44;;;;;;;2.33;1.70;;;28.40;55.10;;;;;;4918421;29;20951;-68
2023/09/15 12:48:11;;;;;;;1.87;1.47;;;28.60;54.70;;;;;;4918684;29;20461;-69
2023/09/15 12:50:39;;;;;;;1.90;1.60;;;28.50;52.10;;;;;;4918485;29;20449;-68
2023/09/15 12:53:07;;;;;;;1.97;1.30;;;28.10;50.50;;;;;;4918611;29;20452;-68
2023/09/15 12:55:34;;;;;;;1.80;1.40;;;28.10;51.00;;;;;;4918597;29;20453;-69
2023/09/15 12:58:00;;;;;;;2.20;1.63;;;28.00;51.00;;;;;;4918536;29;20523;-69
2023/09/15 13:00:27;;;;;;;2.70;1.60;;;27.90;51.00;;;;;;4918384;29;20528;-69
2023/09/15 13:02:54;;;;;;;2.30;1.90;;;27.90;52.30;;;;;;4918053;29;20444;-68
2023/09/15 13:05:20;;;;;;;2.70;2.00;;;28.10;52.40;;;;;;4918626;29;20484;-69
2023/09/15 13:07:47;;;;;;;2.00;1.60;;;28.00;51.60;;;;;;4918450;29;20444;-69
2023/09/15 13:10:15;;;;;;;2.00;1.57;;;28.20;51.60;;;;;;4918444;29;20456;-69
2023/09/15 13:12:43;;;;;;;2.60;1.80;;;28.50;52.10;;;;;;4918405;29;20550;-69
2023/09/15 13:15:10;;;;;;;1.80;1.20;;;28.30;51.10;;;;;;4918336;29;20821;-68
2023/09/15 13:17:38;;;;;;;2.30;1.87;;;28.30;51.30;;;;;;4918180;29;20455;-69
2023/09/15 13:20:07;;;;;;;2.57;1.63;;;28.20;51.00;;;;;;4918095;29;20450;-69
2023/09/15 13:22:35;;;;;;;2.03;1.70;;;28.30;51.30;;;;;;4918055;29;20544;-68
2023/09/15 13:25:02;;;;;;;2.30;1.90;;;28.40;52.50;;;;;;4918064;29;20495;-67
2023/09/15 13:27:31;;;;;;;2.00;1.40;;;28.30;51.40;;;;;;4918002;29;20459;-68
2023/09/15 13:29:58;;;;;;;1.83;1.60;;;27.90;52.60;;;;;;4917955;29;20449;-69
2023/09/15 13:32:25;;;;;;;2.30;1.80;;;27.50;53.00;;;;;;4917995;29;20468;-69
2023/09/15 13:34:53;;;;;;;2.03;1.60;;;27.50;53.90;;;;;;4917956;29;20479;-68
2023/09/15 13:37:20;;;;;;;2.30;1.93;;;27.70;53.80;;;;;;4918262;29;20488;-69
2023/09/15 13:39:47;;;;;;;2.73;2.03;;;28.30;53.40;;;;;;4918064;29;20517;-69
2023/09/15 13:42:18;;;;;;;2.00;1.70;;;28.30;52.10;;;;;;4917666;29;20468;-68
2023/09/15 13:44:46;;;;;;;2.23;2.03;;;28.10;52.90;;;;;;4917359;29;20511;-69
2023/09/15 13:47:13;;;;;;;2.30;2.10;;;27.80;52.90;;;;;;4917337;29;20445;-69
2023/09/15 13:49:41;;;;;;;3.73;2.20;;;27.60;54.20;;;;;;4917617;29;20452;-69
2023/09/15 13:52:08;;;;;;;2.10;1.90;;;27.90;53.90;;;;;;4917506;29;20532;-69
2023/09/15 13:54:34;;;;;;;1.90;1.63;;;28.10;54.60;;;;;;4917518;29;20444;-68
2023/09/15 13:57:02;;;;;;;2.17;1.87;;;28.30;53.50;;;;;;4917196;29;20445;-69
2023/09/15 13:59:29;;;;;;;2.13;1.77;;;28.60;53.30;;;;;;4917542;29;20449;-69
2023/09/15 14:01:57;;;;;;;3.30;1.67;;;28.80;52.60;;;;;;4916821;29;20484;-68
2023/09/15 14:04:24;;;;;;;2.00;1.70;;;28.90;52.60;;;;;;4917047;29;20492;-68
2023/09/15 14:06:50;;;;;;;2.60;2.27;;;29.00;52.60;;;;;;4917147;29;20540;-68
2023/09/15 14:09:18;;;;;;;2.33;1.93;;;29.20;52.60;;;;;;4917113;29;20823;-68
2023/09/15 14:11:45;;;;;;;2.10;1.80;;;29.60;51.70;;;;;;4917201;29;20559;-68
2023/09/15 14:14:12;;;;;;;2.90;2.47;;;29.60;51.90;;;;;;4917182;29;20476;-69
2023/09/15 14:16:39;;;;;;;2.20;2.00;;;29.80;51.80;;;;;;4917216;29;20460;-69
2023/09/15 14:19:07;;;;;;;2.50;2.30;;;30.30;51.20;;;;;;4917127;29;20456;-69
2023/09/15 14:21:34;;;;;;;2.50;2.30;;;30.90;50.10;;;;;;4916978;29;20469;-69
2023/09/15 14:24:01;;;;;;;2.97;2.00;;;32.00;48.80;;;;;;4917042;29;20515;-69
2023/09/15 14:26:28;;;;;;;2.50;2.30;;;32.90;47.10;;;;;;4916998;29;20460;-69
2023/09/15 14:28:54;;;;;;;2.80;2.50;;;33.50;45.80;;;;;;4916870;29;20448;-69
2023/09/15 14:31:21;;;;;;;2.60;2.33;;;34.10;45.10;;;;;;4916779;29;20545;-69
2023/09/15 14:33:48;;;;;;;3.40;2.40;;;35.60;43.10;;;;;;4916826;29;20440;-69
2023/09/15 14:36:16;;;;;;;2.00;1.80;;;36.70;41.20;;;;;;4917057;29;20456;-69
2023/09/15 14:38:42;;;;;;;2.47;2.07;;;37.50;40.60;;;;;;4917228;29;20806;-69
2023/09/15 14:41:09;;;;;;;2.13;1.87;;;37.60;40.20;;;;;;4917113;29;20476;-69
2023/09/15 14:43:36;;;;;;;3.33;1.97;;;37.00;40.50;;;;;;4916536;29;20448;-69
2023/09/15 14:46:03;;;;;;;2.10;1.90;;;36.30;40.90;;;;;;4916933;29;20873;-69
2023/09/15 14:48:29;;;;;;;2.50;2.30;;;35.90;42.40;;;;;;4917199;29;20474;-69
2023/09/15 14:50:57;;;;;;;2.57;2.33;;;35.30;43.00;;;;;;4917205;29;20474;-69
2023/09/15 14:53:26;;;;;;;3.13;2.30;;;35.00;44.30;;;;;;4917243;29;20456;-68
2023/09/15 14:55:52;;;;;;;2.33;1.87;;;35.20;43.60;;;;;;4916942;29;20452;-69
2023/09/15 14:58:19;;;;;;;2.30;2.10;;;35.10;43.80;;;;;;4917135;29;20448;-69
2023/09/15 15:00:46;;;;;;;2.70;2.50;;;34.50;44.30;;;;;;4916706;29;20469;-69
2023/09/15 15:03:12;;;;;;;2.40;1.87;;;33.90;45.90;;;;;;4916908;29;20528;-69
2023/09/15 15:05:39;;;;;;;2.27;2.07;;;34.00;45.90;;;;;;4916946;29;20480;-68
2023/09/15 15:08:06;;;;;;;2.80;2.37;;;33.80;45.90;;;;;;4917038;29;20452;-69
2023/09/15 15:10:34;;;;;;;2.20;2.00;;;33.70;46.80;;;;;;4916553;29;20942;-69
2023/09/15 15:13:01;;;;;;;2.80;2.00;;;33.80;45.90;;;;;;4916729;29;20997;-69
2023/09/15 15:15:28;;;;;;;2.27;1.90;;;33.60;46.50;;;;;;4919016;29;20448;-69
2023/09/15 15:17:54;;;;;;;2.50;2.30;;;33.40;46.90;;;;;;4920917;29;20445;-69
2023/09/15 15:20:21;;;;;;;2.70;2.40;;;33.10;47.50;;;;;;4920681;29;20448;-69
2023/09/15 15:22:48;;;;;;;2.40;2.00;;;31.30;49.60;;;;;;4920751;29;20452;-69
2023/09/15 15:25:14;;;;;;;2.90;2.20;;;30.00;52.70;;;;;;4920315;29;20843;-68
2023/09/15 15:27:44;;;;;;;2.40;2.10;;;29.60;54.10;;;;;;4920637;29;20455;-69
2023/09/15 15:30:11;;;;;;;2.53;2.33;;;28.90;54.80;;;;;;4920586;29;20516;-69
2023/09/15 15:32:38;;;;;;;3.47;2.10;;;28.30;56.30;;;;;;4920536;29;20469;-69
2023/09/15 15:35:05;;;;;;;2.70;2.50;;;27.80;57.40;;;;;;4920282;29;20977;-68
2023/09/15 15:37:32;;;;;;;2.73;2.50;;;27.10;58.60;;;;;;4920121;29;20984;-68
2023/09/15 15:39:58;;;;;;;2.30;2.10;;;26.70;59.90;;;;;;4920436;29;20455;-68
2023/09/15 15:42:25;;;;;;;2.80;2.60;;;26.40;60.80;;;;;;4920027;29;20468;-69
2023/09/15 15:44:56;;;;;;;2.80;2.20;;;26.40;61.20;;;;;;4920245;29;20485;-69
2023/09/15 15:47:23;;;;;;;2.50;2.30;;;26.30;61.30;;;;;;4920334;29;20461;-68
2023/09/15 15:49:50;;;;;;;3.17;2.83;;;26.30;61.90;;;;;;4919938;29;21026;-68
2023/09/15 15:52:17;;;;;;;2.90;2.60;;;25.90;62.50;;;;;;4920196;29;20540;-69
2023/09/15 15:54:46;;;;;;;2.67;2.47;;;25.80;62.30;;;;;;4920223;29;20444;-69
2023/09/15 15:57:13;;;;;;;3.03;2.70;;;25.80;62.50;;;;;;4919835;29;20462;-68
2023/09/15 15:59:39;;;;;;;2.83;2.50;;;25.60;62.60;;;;;;4919765;29;20922;-69
2023/09/15 16:02:08;;;;;;;3.07;2.67;;;25.50;63.20;;;;;;4919573;29;20488;-69
2023/09/15 16:04:35;;;;;;;2.80;2.50;;;25.50;63.00;;;;;;4919909;29;20488;-69
2023/09/15 16:07:02;;;;;;;3.23;2.93;;;25.50;63.10;;;;;;4919980;29;20918;-69
2023/09/15 16:09:30;;;;;;;2.57;2.37;;;25.30;63.40;;;;;;4919569;29;20456;-68
2023/09/15 16:11:57;;;;;;;4.50;2.63;;;25.10;63.60;;;;;;4919717;29;20468;-69
2023/09/15 16:14:24;;;;;;;3.67;2.83;;;25.00;64.20;;;;;;4920190;29;20947;-68
2023/09/15 16:16:50;;;;;;;3.63;2.83;;;24.80;64.50;;;;;;4919830;29;20452;-69
2023/09/15 16:19:18;;;;;;;2.73;2.53;;;24.80;64.70;;;;;;4919672;29;20444;-69
2023/09/15 16:21:45;;;;;;;2.60;2.30;;;24.80;64.70;;;;;;4919588;29;20520;-69
2023/09/15 16:24:13;;;;;;;3.10;2.83;;;24.90;64.40;;;;;;4919567;29;20491;-69
2023/09/15 16:26:40;;;;;;;2.47;2.27;;;24.80;64.40;;;;;;4919105;29;20484;-68
2023/09/15 16:29:06;;;;;;;2.50;2.30;;;24.90;64.40;;;;;;4919229;29;20460;-67
2023/09/15 16:31:33;;;;;;;3.30;2.47;;;24.90;64.50;;;;;;4919663;29;20839;-68
2023/09/15 16:34:00;;;;;;;2.70;2.33;;;24.90;64.50;;;;;;4919609;29;20449;-68
2023/09/15 16:36:28;;;;;;;2.67;2.37;;;25.00;64.70;;;;;;4919319;29;20966;-68
2023/09/15 16:38:56;;;;;;;3.40;3.10;;;25.10;64.90;;;;;;4919456;29;21009;-68
2023/09/15 16:41:22;;;;;;;3.30;3.00;;;24.80;66.30;;;;;;4919332;29;20478;-68
2023/09/15 16:43:51;;;;;;;3.43;3.13;;;24.70;66.90;;;;;;4919295;29;20454;-67
2023/09/15 16:46:17;;;;;;;2.50;2.30;;;24.60;67.30;;;;;;4919235;29;20480;-68
2023/09/15 16:48:44;;;;;;;3.13;2.80;;;24.40;68.00;;;;;;4919146;29;20452;-68